createdAt,value
2023-03-20T00:02:22.230Z,28.90
2023-03-20T00:04:50.609Z,25.42
2023-03-20T00:07:18.823Z,28.13
2023-03-20T00:09:49.461Z,27.13
2023-03-20T00:12:25.001Z,30.95
2023-03-20T00:14:53.597Z,23.52
2023-03-20T00:17:22.822Z,25.50
2023-03-20T00:19:51.480Z,20.27
2023-03-20T00:22:19.750Z,26.38
2023-03-20T00:24:49.601Z,23.13
2023-03-20T00:27:19.358Z,23.30
2023-03-20T00:29:47.648Z,24.92
2023-03-20T00:32:16.869Z,27.70
2023-03-20T00:34:45.169Z,27.02
2023-03-20T00:37:13.560Z,30.05
2023-03-20T00:39:42.584Z,31.75
2023-03-20T00:42:21.853Z,33.13
2023-03-20T00:44:54.163Z,24.42
2023-03-20T00:47:25.118Z,27.73
2023-03-20T00:49:56.108Z,27.92
2023-03-20T00:52:25.506Z,24.75
2023-03-20T00:54:53.805Z,27.17
2023-03-20T00:57:26.684Z,23.88
2023-03-20T00:59:59.234Z,25.63
2023-03-20T01:02:31.225Z,35.67
2023-03-20T01:05:00.232Z,31.08
2023-03-20T01:07:28.899Z,27.70
2023-03-20T01:09:57.307Z,26.10
2023-03-20T01:12:27.366Z,29.45
2023-03-20T01:14:58.771Z,27.63
2023-03-20T01:17:29.377Z,30.80
2023-03-20T01:19:57.706Z,27.80
2023-03-20T01:22:26.310Z,24.60
2023-03-20T01:24:54.573Z,26.33
2023-03-20T01:27:23.722Z,22.27
2023-03-20T01:29:53.662Z,26.20
2023-03-20T01:32:21.924Z,29.27
2023-03-20T01:34:50.183Z,24.30
2023-03-20T01:37:27.224Z,18.75
2023-03-20T01:39:57.279Z,22.85
2023-03-20T01:42:26.061Z,23.45
2023-03-20T01:44:56.022Z,24.80
2023-03-20T01:47:27.801Z,17.00
2023-03-20T01:50:32.552Z,17.33
2023-03-20T01:53:11.141Z,22.55
2023-03-20T01:55:42.030Z,20.20
2023-03-20T01:58:17.860Z,17.25
2023-03-20T02:00:50.021Z,19.83
2023-03-20T02:03:19.842Z,23.77
2023-03-20T02:05:49.573Z,26.20
2023-03-20T02:08:25.344Z,22.70
2023-03-20T02:10:54.867Z,24.45
2023-03-20T02:13:24.039Z,19.80
2023-03-20T02:16:14.157Z,22.10
2023-03-20T02:18:47.495Z,20.83
2023-03-20T02:22:08.707Z,23.40
2023-03-20T02:25:25.182Z,18.63
2023-03-20T02:28:36.266Z,21.35
2023-03-20T02:31:47.236Z,20.52
2023-03-20T02:34:57.554Z,21.60
2023-03-20T02:37:48.913Z,20.52
2023-03-20T02:40:31.879Z,23.27
2023-03-20T02:43:11.491Z,24.52
2023-03-20T02:45:49.797Z,26.92
2023-03-20T02:48:31.735Z,24.45
2023-03-20T02:51:06.973Z,23.75
2023-03-20T02:53:50.592Z,23.60
2023-03-20T02:56:27.837Z,23.23
2023-03-20T02:59:09.037Z,22.92
2023-03-20T03:01:42.683Z,23.10
2023-03-20T03:04:17.811Z,20.23
2023-03-20T03:06:51.760Z,22.63
2023-03-20T03:09:25.155Z,21.98
2023-03-20T03:11:58.516Z,25.13
2023-03-20T03:14:36.938Z,23.95
2023-03-20T03:17:07.676Z,25.13
2023-03-20T03:19:39.952Z,26.60
2023-03-20T03:22:08.899Z,24.27
2023-03-20T03:24:44.152Z,22.67
2023-03-20T03:27:21.416Z,25.48
2023-03-20T03:29:56.693Z,21.83
2023-03-20T03:34:58.255Z,31.10
2023-03-20T03:37:42.222Z,27.38
2023-03-20T03:40:33.379Z,27.90
2023-03-20T03:43:07.753Z,32.67
2023-03-20T03:45:41.934Z,27.63
2023-03-20T03:48:16.260Z,27.77
2023-03-20T03:50:49.757Z,34.20
2023-03-20T03:53:23.786Z,33.40
2023-03-20T03:55:59.313Z,32.45
2023-03-20T03:58:33.109Z,33.38
2023-03-20T04:01:03.990Z,30.92
2023-03-20T04:03:37.841Z,36.92
2023-03-20T04:06:10.052Z,37.95
2023-03-20T04:08:38.389Z,33.15
2023-03-20T04:11:08.912Z,38.10
2023-03-20T04:13:37.733Z,35.65
2023-03-20T04:16:07.572Z,34.70
2023-03-20T04:18:36.032Z,31.70
2023-03-20T04:21:06.281Z,32.28
2023-03-20T04:23:34.627Z,33.75
2023-03-20T04:26:03.734Z,39.83
2023-03-20T04:28:35.379Z,40.17
2023-03-20T04:31:04.422Z,37.30
2023-03-20T04:33:32.904Z,32.90
2023-03-20T04:36:01.669Z,28.27
2023-03-20T04:38:30.229Z,35.17
2023-03-20T04:40:58.829Z,37.13
2023-03-20T04:43:27.337Z,42.33
2023-03-20T04:45:57.136Z,33.90
2023-03-20T04:48:27.818Z,39.17
2023-03-20T04:50:56.805Z,38.95
2023-03-20T04:53:27.139Z,30.23
2023-03-20T04:55:55.623Z,36.58
2023-03-20T04:58:23.911Z,38.88
2023-03-20T05:00:52.806Z,39.70
2023-03-20T05:03:24.124Z,37.28
2023-03-20T05:05:53.402Z,37.47
2023-03-20T05:08:21.783Z,35.50
2023-03-20T05:10:50.636Z,38.38
2023-03-20T05:13:19.216Z,32.28
2023-03-20T05:15:47.907Z,39.15
2023-03-20T05:18:16.430Z,38.30
2023-03-20T05:20:46.508Z,34.60
2023-03-20T05:23:15.161Z,37.55
2023-03-20T05:25:43.964Z,43.75
2023-03-20T05:28:12.352Z,34.55
2023-03-20T05:30:41.727Z,37.13
2023-03-20T05:33:10.106Z,41.03
2023-03-20T05:35:38.874Z,43.67
2023-03-20T05:38:09.358Z,40.03
2023-03-20T05:40:37.791Z,33.80
2023-03-20T05:43:06.243Z,36.80
2023-03-20T05:45:34.743Z,32.05
2023-03-20T05:48:03.286Z,31.73
2023-03-20T05:50:32.082Z,34.10
2023-03-20T05:53:01.050Z,29.85
2023-03-20T05:55:31.153Z,32.63
2023-03-20T05:58:00.364Z,39.97
2023-03-20T06:00:29.348Z,44.45
2023-03-20T06:02:57.859Z,31.77
2023-03-20T06:05:26.313Z,39.90
2023-03-20T06:07:54.756Z,37.58
2023-03-20T06:10:23.306Z,36.92
2023-03-20T06:12:53.326Z,34.08
2023-03-20T06:15:22.218Z,33.92
2023-03-20T06:17:50.555Z,33.50
2023-03-20T06:20:20.211Z,28.70
2023-03-20T06:22:49.403Z,29.02
2023-03-20T06:25:18.327Z,34.75
2023-03-20T06:27:48.979Z,30.70
2023-03-20T06:30:19.449Z,32.95
2023-03-20T06:32:59.493Z,32.65
2023-03-20T06:35:31.282Z,27.77
2023-03-20T06:38:00.024Z,37.33
2023-03-20T06:40:28.920Z,31.85
2023-03-20T06:42:57.792Z,34.03
2023-03-20T06:45:28.087Z,29.27
2023-03-20T06:47:56.835Z,30.50
2023-03-20T06:50:25.685Z,34.72
2023-03-20T06:52:54.063Z,36.83
2023-03-20T06:55:22.661Z,29.23
2023-03-20T06:57:51.254Z,24.77
2023-03-20T07:00:21.698Z,35.33
2023-03-20T07:02:53.533Z,38.25
2023-03-20T07:05:23.231Z,31.33
2023-03-20T07:10:37.821Z,32.50
2023-03-20T07:13:10.555Z,30.02
2023-03-20T07:15:45.699Z,31.10
2023-03-20T07:18:21.042Z,32.17
2023-03-20T07:20:50.185Z,30.55
2023-03-20T07:23:19.369Z,28.55
2023-03-20T07:25:48.937Z,36.58
2023-03-20T07:28:17.781Z,34.63
2023-03-20T07:30:46.450Z,31.92
2023-03-20T07:33:15.611Z,30.27
2023-03-20T07:35:46.693Z,27.15
2023-03-20T07:38:15.304Z,37.05
2023-03-20T07:40:43.810Z,40.15
2023-03-20T07:43:12.413Z,29.45
2023-03-20T07:45:40.963Z,37.88
2023-03-20T07:48:09.867Z,32.63
2023-03-20T07:50:38.325Z,35.55
2023-03-20T07:53:08.446Z,35.80
2023-03-20T07:55:37.213Z,31.42
2023-03-20T07:58:06.447Z,31.00
2023-03-20T08:00:34.841Z,28.25
2023-03-20T08:03:04.182Z,30.17
2023-03-20T08:05:32.812Z,29.98
2023-03-20T08:08:01.381Z,22.85
2023-03-20T08:10:31.690Z,25.33
2023-03-20T08:13:00.014Z,25.02
2023-03-20T08:15:28.391Z,24.80
2023-03-20T08:17:58.854Z,25.85
2023-03-20T08:20:27.549Z,24.00
2023-03-20T08:22:55.966Z,26.73
2023-03-20T08:25:24.485Z,23.52
2023-03-20T08:27:54.703Z,26.80
2023-03-20T08:30:23.118Z,37.03
2023-03-20T08:32:51.466Z,27.40
2023-03-20T08:35:32.589Z,35.88
2023-03-20T08:38:02.833Z,31.38
2023-03-20T08:40:32.103Z,31.15
2023-03-20T08:43:01.659Z,27.55
2023-03-20T08:45:29.870Z,21.17
2023-03-20T08:47:58.532Z,26.67
2023-03-20T08:50:28.236Z,25.33
2023-03-20T08:52:56.925Z,24.88
2023-03-20T08:55:25.302Z,33.60
2023-03-20T08:57:57.330Z,26.55
2023-03-20T09:00:27.716Z,31.52
2023-03-20T09:02:56.461Z,26.02
2023-03-20T09:05:25.099Z,30.33
2023-03-20T09:07:53.461Z,24.92
2023-03-20T09:10:21.995Z,24.90
2023-03-20T09:12:50.351Z,22.52
2023-03-20T09:15:18.775Z,25.02
2023-03-20T09:17:48.713Z,28.75
2023-03-20T09:20:17.743Z,24.05
2023-03-20T09:22:46.316Z,25.67
2023-03-20T09:25:15.387Z,23.50
2023-03-20T09:27:43.915Z,29.05
2023-03-20T09:30:15.148Z,29.13
2023-03-20T09:32:43.634Z,28.13
2023-03-20T09:35:13.465Z,21.80
2023-03-20T09:37:41.937Z,27.88
2023-03-20T09:40:21.110Z,24.20
2023-03-20T09:42:58.738Z,24.00
2023-03-20T09:45:46.670Z,22.95
2023-03-20T09:48:22.759Z,26.85
2023-03-20T09:51:04.337Z,21.52
2023-03-20T09:53:37.741Z,20.42
2023-03-20T09:56:11.853Z,25.15
2023-03-20T09:58:45.057Z,28.35
2023-03-20T10:01:17.008Z,22.15
2023-03-20T10:03:52.154Z,19.75
2023-03-20T10:06:22.076Z,26.35
2023-03-20T10:08:52.093Z,26.55
2023-03-20T10:11:48.618Z,16.33
2023-03-20T10:14:27.249Z,19.02
2023-03-20T10:17:14.228Z,21.92
2023-03-20T10:19:47.351Z,17.40
2023-03-20T10:22:25.988Z,20.92
2023-03-20T10:25:02.710Z,18.15
2023-03-20T10:27:39.518Z,16.73
2023-03-20T10:30:27.644Z,28.60
2023-03-20T10:33:11.101Z,20.30
2023-03-20T10:35:48.693Z,24.63
2023-03-20T10:38:38.291Z,23.20
2023-03-20T10:41:15.466Z,22.40
2023-03-20T10:43:47.455Z,24.45
2023-03-20T10:46:20.919Z,27.63
2023-03-20T10:48:53.368Z,27.25
2023-03-20T10:51:29.242Z,22.35
2023-03-20T10:54:05.166Z,26.88
2023-03-20T10:56:41.543Z,24.20
2023-03-20T10:59:24.846Z,28.90
2023-03-20T11:01:53.442Z,26.83
2023-03-20T11:04:22.423Z,34.47
2023-03-20T11:06:59.845Z,25.63
2023-03-20T11:09:31.445Z,29.08
2023-03-20T11:12:02.748Z,29.42
2023-03-20T11:14:37.505Z,32.53
2023-03-20T11:17:07.495Z,33.33
2023-03-20T11:19:38.352Z,35.33
2023-03-20T11:22:21.400Z,38.42
2023-03-20T11:24:55.196Z,28.65
2023-03-20T11:27:28.576Z,43.05
2023-03-20T11:29:59.622Z,31.08
2023-03-20T11:32:32.174Z,26.77
2023-03-20T11:35:24.946Z,37.10
2023-03-20T11:37:55.872Z,33.92
2023-03-20T11:40:32.006Z,35.97
2023-03-20T11:43:11.565Z,36.97
2023-03-20T11:45:43.236Z,36.88
2023-03-20T11:48:21.406Z,29.95
2023-03-20T11:51:03.944Z,38.42
2023-03-20T11:53:36.844Z,40.80
2023-03-20T11:56:12.062Z,40.85
2023-03-20T11:58:52.931Z,33.92
2023-03-20T12:01:23.346Z,35.00
2023-03-20T12:03:55.887Z,36.97
2023-03-20T12:06:27.706Z,40.25
2023-03-20T12:09:02.524Z,49.10
2023-03-20T12:11:48.464Z,38.67
2023-03-20T12:14:32.274Z,37.75
2023-03-20T12:17:35.283Z,38.17
2023-03-20T12:20:13.869Z,40.83
2023-03-20T12:22:54.281Z,35.10
2023-03-20T12:25:27.141Z,43.45
2023-03-20T12:28:08.736Z,35.08
2023-03-20T12:31:02.425Z,34.38
2023-03-20T12:33:43.277Z,28.50
2023-03-20T12:36:17.719Z,30.65
2023-03-20T12:38:46.926Z,32.95
2023-03-20T12:41:25.184Z,35.35
2023-03-20T12:44:25.354Z,31.42
2023-03-20T12:47:05.462Z,31.45
2023-03-20T12:49:44.776Z,33.42
2023-03-20T12:52:24.424Z,34.00
2023-03-20T12:55:33.615Z,40.13
2023-03-20T12:58:21.222Z,34.15
2023-03-20T13:01:04.024Z,28.05
2023-03-20T13:03:50.735Z,35.78
2023-03-20T13:06:27.509Z,37.80
2023-03-20T13:09:31.959Z,40.45
2023-03-20T13:12:09.630Z,35.20
2023-03-20T13:14:46.340Z,34.22
2023-03-20T13:17:26.181Z,38.90
2023-03-20T13:20:21.930Z,35.17
2023-03-20T13:23:11.277Z,40.60
2023-03-20T13:26:04.186Z,35.78
2023-03-20T13:28:42.905Z,40.70
2023-03-20T13:31:27.340Z,30.98
2023-03-20T13:34:07.255Z,36.25
2023-03-20T13:36:57.436Z,31.83
2023-03-20T13:39:34.839Z,28.75
2023-03-20T13:42:07.732Z,30.52
2023-03-20T13:44:37.058Z,37.83
2023-03-20T13:47:11.835Z,37.25
2023-03-20T13:49:50.819Z,35.70
2023-03-20T13:52:23.130Z,29.05
2023-03-20T13:55:14.759Z,30.10
2023-03-20T13:58:07.200Z,37.42
2023-03-20T14:00:45.362Z,33.03
2023-03-20T14:03:23.412Z,30.58
2023-03-20T14:05:53.294Z,27.52
2023-03-20T14:08:36.949Z,28.85
2023-03-20T14:11:16.838Z,31.65
2023-03-20T14:13:49.896Z,24.65
2023-03-20T14:16:20.853Z,29.15
2023-03-20T14:18:51.762Z,28.80
2023-03-20T14:21:25.703Z,26.85
2023-03-20T14:24:04.607Z,24.33
2023-03-20T14:26:38.505Z,30.85
2023-03-20T14:29:33.807Z,32.08
2023-03-20T14:32:52.852Z,29.63
2023-03-20T14:35:28.667Z,27.52
2023-03-20T14:38:37.179Z,25.08
2023-03-20T14:41:16.336Z,26.73
2023-03-20T14:44:02.196Z,22.73
2023-03-20T14:46:42.247Z,25.77
2023-03-20T14:49:44.907Z,24.83
2023-03-20T14:52:37.487Z,27.38
2023-03-20T14:55:35.786Z,23.45
2023-03-20T14:58:07.564Z,21.75
2023-03-20T15:00:47.821Z,18.80
2023-03-20T15:03:19.209Z,28.00
2023-03-20T15:05:49.211Z,22.17
2023-03-20T15:08:25.462Z,23.42
2023-03-20T15:10:58.771Z,26.55
2023-03-20T15:13:31.097Z,21.92
2023-03-20T15:16:07.038Z,21.33
2023-03-20T15:18:41.103Z,21.50
2023-03-20T15:21:18.701Z,22.85
2023-03-20T15:23:48.719Z,28.85
2023-03-20T15:26:25.426Z,22.30
2023-03-20T15:29:02.560Z,23.85
2023-03-20T15:31:33.501Z,25.25
2023-03-20T15:34:04.858Z,21.58
2023-03-20T15:36:37.109Z,20.55
2023-03-20T15:39:15.046Z,20.23
2023-03-20T15:41:51.718Z,23.13
2023-03-20T15:44:24.361Z,19.77
2023-03-20T15:46:57.834Z,21.15
2023-03-20T15:49:27.295Z,22.80
2023-03-20T15:52:04.237Z,23.55
2023-03-20T15:54:34.133Z,24.52
2023-03-20T15:57:05.426Z,25.15
2023-03-20T15:59:35.390Z,24.45
2023-03-20T16:02:04.894Z,28.80
2023-03-20T16:04:35.164Z,24.40
2023-03-20T16:07:04.169Z,27.00
2023-03-20T16:09:45.336Z,24.65
2023-03-20T16:12:18.811Z,29.15
2023-03-20T16:14:50.049Z,24.30
2023-03-20T16:17:21.331Z,24.10
2023-03-20T16:19:49.989Z,27.40
2023-03-20T16:22:25.820Z,25.75
2023-03-20T16:24:59.587Z,25.50
2023-03-20T16:27:34.024Z,29.98
2023-03-20T16:30:08.828Z,26.93
2023-03-20T16:32:41.762Z,30.45
2023-03-20T16:35:19.232Z,30.42
2023-03-20T16:37:56.382Z,29.20
2023-03-20T16:40:33.917Z,31.83
2023-03-20T16:43:14.953Z,27.92
2023-03-20T16:45:46.119Z,34.17
2023-03-20T16:48:32.330Z,33.53
2023-03-20T16:51:17.775Z,30.48
2023-03-20T16:53:48.720Z,33.92
2023-03-20T16:56:26.182Z,33.47
2023-03-20T16:58:57.275Z,36.03
2023-03-20T17:01:29.130Z,32.42
2023-03-20T17:03:59.894Z,37.58
2023-03-20T17:06:45.664Z,35.95
2023-03-20T17:12:03.029Z,33.78
2023-03-20T17:14:34.119Z,29.77
2023-03-20T17:17:02.604Z,29.48
2023-03-20T17:19:34.150Z,31.67
2023-03-20T17:22:05.625Z,31.33
2023-03-20T17:24:34.264Z,35.25
2023-03-20T17:27:02.768Z,29.48
2023-03-20T17:29:32.682Z,32.25
2023-03-20T17:32:01.426Z,36.75
2023-03-20T17:34:30.072Z,36.47
2023-03-20T17:37:01.588Z,35.13
2023-03-20T17:39:30.496Z,36.35
2023-03-20T17:41:58.900Z,35.80
2023-03-20T17:44:28.190Z,40.03
2023-03-20T17:47:01.068Z,36.53
2023-03-20T17:49:30.163Z,40.53
2023-03-20T17:51:58.721Z,37.40
2023-03-20T17:54:28.457Z,40.03
2023-03-20T17:56:58.291Z,40.53
2023-03-20T17:59:30.986Z,38.53
2023-03-20T18:02:00.832Z,39.53
2023-03-20T18:04:32.064Z,41.55
2023-03-20T18:07:03.893Z,42.40
2023-03-20T18:09:33.705Z,49.25
2023-03-20T18:12:02.696Z,44.33
2023-03-20T18:14:31.050Z,39.00
2023-03-20T18:17:01.332Z,40.85
2023-03-20T18:19:31.340Z,37.92
2023-03-20T18:22:01.536Z,40.70
2023-03-20T18:24:30.308Z,40.25
2023-03-20T18:26:59.789Z,40.28
2023-03-20T18:29:29.251Z,39.50
2023-03-20T18:31:58.728Z,39.70
2023-03-20T18:34:29.111Z,41.97
2023-03-20T18:36:57.972Z,41.42
2023-03-20T18:39:28.775Z,43.03
2023-03-20T18:41:57.486Z,41.45
2023-03-20T18:44:25.958Z,45.22
2023-03-20T18:46:54.658Z,45.33
2023-03-20T18:49:23.220Z,51.63
2023-03-20T18:51:54.266Z,47.70
2023-03-20T18:54:22.841Z,44.55
2023-03-20T18:56:52.045Z,45.97
2023-03-20T18:59:21.274Z,43.88
2023-03-20T19:01:54.221Z,42.05
2023-03-20T19:04:23.719Z,48.20
2023-03-20T19:06:54.061Z,38.53
2023-03-20T19:09:22.660Z,38.50
2023-03-20T19:11:51.546Z,41.10
2023-03-20T19:14:20.262Z,37.95
2023-03-20T19:16:49.136Z,38.20
2023-03-20T19:19:17.804Z,38.45
2023-03-20T19:21:46.382Z,40.78
2023-03-20T19:24:18.321Z,34.00
2023-03-20T19:26:46.801Z,34.75
2023-03-20T19:29:15.612Z,30.15
2023-03-20T19:31:44.267Z,35.03
2023-03-20T19:34:38.918Z,31.70
2023-03-20T19:37:01.503Z,34.15
2023-03-20T19:39:32.790Z,29.55
2023-03-20T19:42:15.619Z,27.13
2023-03-20T19:44:50.045Z,29.10
2023-03-20T19:47:18.645Z,28.33
2023-03-20T19:49:47.295Z,28.67
2023-03-20T19:52:28.402Z,26.75
2023-03-20T19:55:03.550Z,24.60
2023-03-20T19:57:33.012Z,26.73
2023-03-20T20:00:47.187Z,27.33
2023-03-20T20:02:50.809Z,26.77
2023-03-20T20:05:28.689Z,26.40
2023-03-20T20:10:50.089Z,25.58
2023-03-20T20:13:21.270Z,28.00
2023-03-20T20:15:51.477Z,27.63
2023-03-20T20:18:21.998Z,29.42
2023-03-20T20:23:41.817Z,28.63
2023-03-20T20:26:11.899Z,29.08
2023-03-20T20:28:40.609Z,28.42
2023-03-20T20:31:09.401Z,29.50
2023-03-20T20:33:38.459Z,32.20
2023-03-20T20:36:57.669Z,33.33
2023-03-20T20:39:00.691Z,31.48
2023-03-20T20:41:31.258Z,32.22
2023-03-20T20:44:17.296Z,31.98
2023-03-20T20:46:46.768Z,29.83
2023-03-20T20:49:19.526Z,35.40
2023-03-20T20:51:48.977Z,31.33
2023-03-20T20:54:17.962Z,28.33
2023-03-20T20:56:47.802Z,28.58
2023-03-20T20:59:16.568Z,29.58
2023-03-20T21:01:45.094Z,28.88
2023-03-20T21:04:15.692Z,31.83
2023-03-20T21:07:08.148Z,30.33
2023-03-20T21:09:33.647Z,30.98
2023-03-20T21:12:08.238Z,33.67
2023-03-20T21:14:37.539Z,31.13
2023-03-20T21:17:06.939Z,30.70
2023-03-20T21:19:40.407Z,32.42
2023-03-20T21:22:12.193Z,30.67
2023-03-20T21:24:41.516Z,31.85
2023-03-20T21:27:17.452Z,32.13
2023-03-20T21:29:48.195Z,35.53
2023-03-20T21:32:19.930Z,32.17
2023-03-20T21:34:49.974Z,31.35
2023-03-20T21:38:22.862Z,31.98
2023-03-20T21:40:12.343Z,29.42
2023-03-20T21:42:43.153Z,30.77
2023-03-20T21:46:13.514Z,31.33
2023-03-20T21:48:42.455Z,29.73
2023-03-20T21:51:39.925Z,31.23
2023-03-20T21:54:46.058Z,31.20
2023-03-20T21:57:04.941Z,29.30
2023-03-20T21:59:55.055Z,29.15
2023-03-20T22:02:19.181Z,33.55
2023-03-20T22:05:34.843Z,27.77
2023-03-20T22:11:24.700Z,31.25
2023-03-20T22:17:06.440Z,38.58
2023-03-20T22:22:34.468Z,32.67
2023-03-20T22:25:20.344Z,35.50
2023-03-20T22:34:09.702Z,43.22
2023-03-20T22:42:24.263Z,36.08
2023-03-20T22:44:59.271Z,34.97
2023-03-20T22:47:14.826Z,35.58
2023-03-20T22:49:44.946Z,38.33
2023-03-20T22:52:29.240Z,42.80
2023-03-20T22:55:00.900Z,39.13
2023-03-20T22:57:42.115Z,37.45
2023-03-20T23:00:17.999Z,37.75
2023-03-20T23:02:47.636Z,40.60
2023-03-20T23:05:20.191Z,44.30
2023-03-20T23:07:48.847Z,40.83
2023-03-20T23:10:17.743Z,40.10
2023-03-20T23:12:46.411Z,45.47
2023-03-20T23:15:15.616Z,40.03
2023-03-20T23:17:47.040Z,42.33
2023-03-20T23:20:21.342Z,41.67
2023-03-20T23:22:50.970Z,41.65
2023-03-20T23:25:36.038Z,38.25
2023-03-20T23:28:07.635Z,34.15
2023-03-20T23:31:07.369Z,31.40
2023-03-20T23:33:24.883Z,32.15
2023-03-20T23:36:12.503Z,39.00
2023-03-20T23:38:46.070Z,37.67
2023-03-20T23:41:15.966Z,35.47
2023-03-20T23:43:45.170Z,34.88
2023-03-20T23:46:13.682Z,35.22
2023-03-20T23:48:42.649Z,32.40
2023-03-20T23:51:12.509Z,30.48
2023-03-20T23:53:41.180Z,30.35
2023-03-20T23:56:13.414Z,34.13
2023-03-20T23:58:51.136Z,34.40
